createdAt,value
2022-10-20T00:02:01.808Z,61.80
2022-10-20T00:04:33.548Z,61.02
2022-10-20T00:07:06.068Z,61.14
2022-10-20T00:09:38.745Z,61.03
2022-10-20T00:12:11.555Z,60.89
2022-10-20T00:14:44.665Z,60.98
2022-10-20T00:17:17.070Z,61.22
2022-10-20T00:19:52.316Z,61.14
2022-10-20T00:22:25.044Z,60.99
2022-10-20T00:24:57.556Z,60.82
2022-10-20T00:27:30.578Z,61.08
2022-10-20T00:30:03.138Z,61.22
2022-10-20T00:32:36.026Z,61.47
2022-10-20T00:35:09.902Z,61.87
2022-10-20T00:37:42.718Z,61.65
2022-10-20T00:40:15.830Z,61.71
2022-10-20T00:42:49.188Z,62.09
2022-10-20T00:45:24.149Z,62.22
2022-10-20T00:48:06.941Z,62.36
2022-10-20T00:50:45.728Z,62.42
2022-10-20T00:53:23.573Z,62.20
2022-10-20T00:56:00.100Z,62.10
2022-10-20T00:58:32.999Z,62.45
2022-10-20T01:01:06.135Z,62.48
2022-10-20T01:03:46.887Z,62.57
2022-10-20T01:06:22.790Z,62.41
2022-10-20T01:08:56.686Z,62.45
2022-10-20T01:12:05.231Z,62.67
2022-10-20T01:14:49.830Z,62.95
2022-10-20T01:17:31.739Z,62.86
2022-10-20T01:20:23.696Z,62.78
2022-10-20T01:23:08.181Z,62.88
2022-10-20T01:25:52.318Z,62.92
2022-10-20T01:28:42.179Z,63.27
2022-10-20T01:31:32.307Z,64.44
2022-10-20T01:34:19.778Z,64.23
2022-10-20T01:37:28.455Z,63.38
2022-10-20T01:40:19.589Z,62.76
2022-10-20T01:42:54.581Z,60.54
2022-10-20T01:45:30.561Z,60.36
2022-10-20T01:48:07.249Z,59.19
2022-10-20T01:50:42.430Z,58.10
2022-10-20T01:53:15.385Z,57.75
2022-10-20T01:55:48.259Z,56.59
2022-10-20T01:59:04.326Z,56.06
2022-10-20T02:01:57.546Z,56.50
2022-10-20T02:04:55.877Z,55.65
2022-10-20T02:07:31.989Z,55.71
2022-10-20T02:10:20.080Z,55.63
2022-10-20T02:13:04.589Z,55.91
2022-10-20T02:15:41.039Z,56.12
2022-10-20T02:18:16.244Z,56.25
2022-10-20T02:20:52.129Z,56.16
2022-10-20T02:23:25.288Z,56.33
2022-10-20T02:25:59.653Z,56.50
2022-10-20T02:28:35.529Z,56.55
2022-10-20T02:31:09.090Z,56.24
2022-10-20T02:33:44.087Z,56.39
2022-10-20T02:36:20.869Z,56.60
2022-10-20T02:38:53.603Z,56.70
2022-10-20T02:41:27.204Z,56.67
2022-10-20T02:44:00.072Z,56.21
2022-10-20T02:46:32.773Z,56.37
2022-10-20T02:49:06.015Z,55.88
2022-10-20T02:51:38.592Z,56.18
2022-10-20T02:54:11.288Z,56.11
2022-10-20T02:56:44.213Z,56.27
2022-10-20T02:59:17.779Z,56.24
2022-10-20T03:01:52.729Z,56.19
2022-10-20T03:07:03.510Z,56.55
2022-10-20T03:09:36.039Z,56.70
2022-10-20T03:12:08.766Z,57.25
2022-10-20T03:14:43.314Z,57.33
2022-10-20T03:17:16.946Z,57.60
2022-10-20T03:19:50.131Z,58.04
2022-10-20T03:25:12.767Z,58.63
2022-10-20T03:27:46.010Z,58.79
2022-10-20T03:30:18.919Z,59.17
2022-10-20T03:32:52.089Z,58.96
2022-10-20T03:35:24.648Z,59.79
2022-10-20T03:38:01.520Z,59.72
2022-10-20T03:40:34.474Z,59.74
2022-10-20T03:43:07.559Z,59.66
2022-10-20T03:45:45.964Z,59.69
2022-10-20T03:48:19.361Z,60.29
2022-10-20T03:50:52.001Z,60.70
2022-10-20T03:53:24.207Z,60.22
2022-10-20T03:55:56.895Z,60.21
2022-10-20T03:58:29.661Z,60.15
2022-10-20T04:01:03.296Z,60.30
2022-10-20T04:03:36.128Z,60.59
2022-10-20T04:06:09.331Z,61.12
2022-10-20T04:08:42.069Z,60.88
2022-10-20T04:11:15.787Z,60.88
2022-10-20T04:13:48.846Z,61.66
2022-10-20T04:16:21.204Z,61.34
2022-10-20T04:18:55.395Z,61.41
2022-10-20T04:21:28.485Z,61.33
2022-10-20T04:24:01.095Z,61.43
2022-10-20T04:26:33.841Z,61.62
2022-10-20T04:29:06.866Z,61.69
2022-10-20T04:31:39.859Z,61.98
2022-10-20T04:34:12.359Z,61.58
2022-10-20T04:36:45.154Z,61.67
2022-10-20T04:39:17.889Z,61.74
2022-10-20T04:41:50.466Z,61.51
2022-10-20T04:44:23.862Z,61.58
2022-10-20T04:46:59.858Z,61.33
2022-10-20T04:49:32.469Z,61.02
2022-10-20T04:52:05.549Z,60.79
2022-10-20T04:54:38.103Z,60.97
2022-10-20T04:57:11.537Z,60.83
2022-10-20T04:59:44.130Z,61.01
2022-10-20T05:02:16.864Z,60.97
2022-10-20T05:04:50.042Z,60.97
2022-10-20T05:07:22.808Z,61.00
2022-10-20T05:09:55.487Z,61.02
2022-10-20T05:12:28.967Z,60.92
2022-10-20T05:15:01.919Z,61.12
2022-10-20T05:17:35.139Z,61.48
2022-10-20T05:20:08.965Z,61.35
2022-10-20T05:22:42.055Z,61.17
2022-10-20T05:28:09.159Z,61.18
2022-10-20T05:33:15.374Z,61.40
2022-10-20T05:35:48.289Z,61.71
2022-10-20T05:38:21.323Z,61.72
2022-10-20T05:40:55.954Z,61.82
2022-10-20T05:43:29.130Z,61.75
2022-10-20T05:46:01.920Z,61.98
2022-10-20T05:48:37.347Z,61.71
2022-10-20T05:51:21.069Z,61.02
2022-10-20T05:53:56.750Z,59.97
2022-10-20T05:56:34.060Z,59.05
2022-10-20T05:59:07.605Z,58.50
2022-10-20T06:01:49.840Z,56.65
2022-10-20T06:04:24.911Z,56.47
2022-10-20T06:06:58.696Z,56.29
2022-10-20T06:09:31.440Z,56.55
2022-10-20T06:12:04.490Z,56.95
2022-10-20T06:14:37.558Z,57.17
2022-10-20T06:17:11.324Z,56.67
2022-10-20T06:19:44.602Z,55.80
2022-10-20T06:22:17.717Z,55.94
2022-10-20T06:24:51.268Z,56.24
2022-10-20T06:27:24.196Z,55.70
2022-10-20T06:29:56.899Z,55.78
2022-10-20T06:32:29.643Z,55.46
2022-10-20T06:35:03.050Z,55.18
2022-10-20T06:37:36.415Z,54.64
2022-10-20T06:40:09.739Z,54.23
2022-10-20T06:42:42.467Z,54.03
2022-10-20T06:45:17.854Z,54.14
2022-10-20T06:47:51.481Z,53.50
2022-10-20T06:50:24.228Z,53.10
2022-10-20T06:52:56.963Z,53.07
2022-10-20T06:55:29.902Z,52.81
2022-10-20T06:58:04.073Z,52.58
2022-10-20T07:00:37.553Z,52.91
2022-10-20T07:03:10.767Z,53.13
2022-10-20T07:05:44.441Z,53.38
2022-10-20T07:08:17.449Z,53.32
2022-10-20T07:10:50.935Z,52.98
2022-10-20T07:13:24.335Z,53.04
2022-10-20T07:15:58.443Z,53.10
2022-10-20T07:18:32.329Z,52.93
2022-10-20T07:21:08.214Z,52.81
2022-10-20T07:23:41.461Z,52.35
2022-10-20T07:26:25.427Z,51.70
2022-10-20T07:29:00.224Z,51.60
2022-10-20T07:31:35.225Z,51.40
2022-10-20T07:34:27.434Z,51.72
2022-10-20T07:37:02.967Z,50.91
2022-10-20T07:39:35.949Z,50.83
2022-10-20T07:42:09.068Z,50.37
2022-10-20T07:44:41.780Z,50.32
2022-10-20T07:47:15.062Z,50.11
2022-10-20T07:49:47.955Z,49.79
2022-10-20T07:52:21.091Z,49.16
2022-10-20T07:55:02.469Z,49.01
2022-10-20T07:57:49.784Z,49.52
2022-10-20T08:00:23.192Z,49.06
2022-10-20T08:02:56.657Z,48.94
2022-10-20T08:05:30.666Z,48.94
2022-10-20T08:08:04.072Z,48.51
2022-10-20T08:10:37.749Z,48.12
2022-10-20T08:13:11.943Z,48.70
2022-10-20T08:15:47.829Z,48.70
2022-10-20T08:18:22.702Z,48.64
2022-10-20T08:20:55.512Z,48.80
2022-10-20T08:23:28.747Z,48.40
2022-10-20T08:26:02.500Z,48.05
2022-10-20T08:28:35.826Z,47.62
2022-10-20T08:31:09.746Z,47.63
2022-10-20T08:33:42.678Z,47.14
2022-10-20T08:36:16.726Z,47.20
2022-10-20T08:38:50.374Z,46.90
2022-10-20T08:41:38.721Z,46.86
2022-10-20T08:44:31.301Z,47.01
2022-10-20T08:47:18.807Z,46.60
2022-10-20T08:49:53.200Z,46.11
2022-10-20T08:52:27.744Z,44.55
2022-10-20T08:55:01.294Z,44.50
2022-10-20T08:57:36.999Z,44.74
2022-10-20T09:00:24.061Z,45.20
2022-10-20T09:02:57.914Z,45.39
2022-10-20T09:05:36.319Z,44.62
2022-10-20T09:08:09.219Z,44.43
2022-10-20T09:10:53.355Z,44.49
2022-10-20T09:13:29.369Z,44.66
2022-10-20T09:16:40.804Z,44.08
2022-10-20T09:19:25.435Z,43.58
2022-10-20T09:22:05.053Z,44.33
2022-10-20T09:24:38.797Z,44.09
2022-10-20T09:27:35.670Z,43.81
2022-10-20T09:30:27.662Z,43.53
2022-10-20T09:33:04.579Z,42.09
2022-10-20T09:35:41.602Z,40.92
2022-10-20T09:38:24.649Z,40.61
2022-10-20T09:41:04.200Z,41.79
2022-10-20T09:43:39.480Z,41.53
2022-10-20T09:46:14.070Z,40.56
2022-10-20T09:48:51.035Z,40.16
2022-10-20T09:51:28.058Z,39.90
2022-10-20T09:54:18.126Z,39.75
2022-10-20T09:56:53.233Z,39.85
2022-10-20T09:59:36.187Z,39.50
2022-10-20T10:02:28.859Z,39.07
2022-10-20T10:05:22.301Z,39.15
2022-10-20T10:08:02.314Z,39.21
2022-10-20T10:10:35.469Z,39.47
2022-10-20T10:13:24.698Z,38.65
2022-10-20T10:16:11.432Z,38.79
2022-10-20T10:18:49.465Z,38.07
2022-10-20T10:21:22.828Z,38.11
2022-10-20T10:23:58.381Z,38.37
2022-10-20T10:26:40.183Z,38.40
2022-10-20T10:29:27.195Z,38.68
2022-10-20T10:32:18.823Z,38.73
2022-10-20T10:35:24.643Z,38.84
2022-10-20T10:37:58.579Z,38.83
2022-10-20T10:40:35.802Z,38.64
2022-10-20T10:43:34.820Z,38.69
2022-10-20T10:46:23.585Z,38.31
2022-10-20T10:49:08.441Z,38.18
2022-10-20T10:52:16.204Z,36.97
2022-10-20T10:55:30.613Z,37.23
2022-10-20T10:58:29.203Z,36.43
2022-10-20T11:01:22.196Z,36.59
2022-10-20T11:04:17.749Z,37.27
2022-10-20T11:07:14.214Z,37.26
2022-10-20T11:10:22.933Z,36.68
2022-10-20T11:13:15.636Z,36.16
2022-10-20T11:16:02.387Z,36.15
2022-10-20T11:18:58.475Z,36.87
2022-10-20T11:21:39.854Z,36.08
2022-10-20T11:24:41.035Z,36.23
2022-10-20T11:27:26.554Z,36.34
2022-10-20T11:30:09.904Z,36.33
2022-10-20T11:33:15.119Z,36.34
2022-10-20T11:35:51.143Z,36.50
2022-10-20T11:38:44.819Z,37.06
2022-10-20T11:41:45.972Z,37.02
2022-10-20T11:44:30.622Z,36.37
2022-10-20T11:47:18.083Z,36.08
2022-10-20T11:49:51.115Z,35.97
2022-10-20T11:52:49.468Z,35.92
2022-10-20T11:55:44.423Z,36.13
2022-10-20T11:58:28.613Z,36.05
2022-10-20T12:01:48.788Z,35.94
2022-10-20T12:04:42.198Z,36.17
2022-10-20T12:07:17.532Z,35.53
2022-10-20T12:09:58.663Z,35.05
2022-10-20T12:12:55.233Z,35.04
2022-10-20T12:15:32.140Z,35.38
2022-10-20T12:18:19.625Z,35.10
2022-10-20T12:20:54.723Z,34.88
2022-10-20T12:23:49.986Z,35.15
2022-10-20T12:26:44.599Z,35.26
2022-10-20T12:29:35.134Z,35.00
2022-10-20T12:32:27.816Z,35.63
2022-10-20T12:35:03.131Z,35.61
2022-10-20T12:37:42.242Z,35.25
2022-10-20T12:40:26.728Z,35.59
2022-10-20T12:42:59.824Z,35.02
2022-10-20T12:45:44.836Z,34.59
2022-10-20T12:48:26.716Z,34.96
2022-10-20T12:51:09.083Z,35.01
2022-10-20T12:53:42.465Z,34.91
2022-10-20T12:56:21.383Z,34.75
2022-10-20T12:59:40.833Z,35.32
2022-10-20T13:02:14.832Z,35.25
2022-10-20T13:05:05.944Z,35.51
2022-10-20T13:07:50.317Z,35.62
2022-10-20T13:10:33.918Z,35.98
2022-10-20T13:13:06.242Z,36.00
2022-10-20T13:15:48.049Z,35.58
2022-10-20T13:18:38.798Z,35.74
2022-10-20T13:21:32.091Z,35.73
2022-10-20T13:24:17.411Z,36.24
2022-10-20T13:27:00.360Z,36.04
2022-10-20T13:29:51.921Z,35.61
2022-10-20T13:33:18.181Z,35.66
2022-10-20T13:36:25.777Z,35.69
2022-10-20T13:39:15.389Z,35.41
2022-10-20T13:42:12.014Z,35.57
2022-10-20T13:45:05.411Z,36.17
2022-10-20T13:47:51.508Z,35.97
2022-10-20T13:50:29.121Z,36.18
2022-10-20T13:53:07.153Z,36.05
2022-10-20T13:56:04.687Z,36.04
2022-10-20T13:58:37.601Z,35.69
2022-10-20T14:01:25.014Z,35.72
2022-10-20T14:03:57.944Z,35.83
2022-10-20T14:06:40.513Z,36.31
2022-10-20T14:09:20.940Z,36.38
2022-10-20T14:12:08.140Z,36.52
2022-10-20T14:14:47.063Z,36.58
2022-10-20T14:17:24.884Z,37.10
2022-10-20T14:20:26.345Z,37.07
2022-10-20T14:23:01.490Z,36.26
2022-10-20T14:25:35.171Z,36.72
2022-10-20T14:28:08.583Z,37.16
2022-10-20T14:30:42.280Z,37.19
2022-10-20T14:33:17.668Z,37.22
2022-10-20T14:35:54.969Z,37.22
2022-10-20T14:38:39.604Z,37.40
2022-10-20T14:41:12.630Z,37.75
2022-10-20T14:43:54.475Z,37.92
2022-10-20T14:46:40.157Z,38.01
2022-10-20T14:49:19.578Z,38.13
2022-10-20T14:52:22.064Z,38.18
2022-10-20T14:54:54.408Z,38.47
2022-10-20T14:57:38.761Z,38.76
2022-10-20T15:00:30.372Z,39.00
2022-10-20T15:03:07.385Z,39.35
2022-10-20T15:05:48.861Z,39.68
2022-10-20T15:08:29.629Z,40.07
2022-10-20T15:11:02.435Z,40.09
2022-10-20T15:13:36.299Z,40.06
2022-10-20T15:16:50.276Z,40.25
2022-10-20T15:19:29.663Z,40.29
2022-10-20T15:24:52.687Z,40.78
2022-10-20T15:27:25.621Z,41.22
2022-10-20T15:29:58.229Z,41.43
2022-10-20T15:32:30.818Z,41.67
2022-10-20T15:35:03.601Z,41.68
2022-10-20T15:37:37.064Z,41.67
2022-10-20T15:40:09.981Z,41.67
2022-10-20T15:42:42.812Z,41.53
2022-10-20T15:45:19.431Z,41.87
2022-10-20T15:47:52.109Z,41.99
2022-10-20T15:50:25.095Z,42.03
2022-10-20T15:52:57.950Z,42.39
2022-10-20T15:55:35.311Z,42.45
2022-10-20T15:58:08.228Z,42.56
2022-10-20T16:00:41.271Z,42.87
2022-10-20T16:03:20.378Z,43.19
2022-10-20T16:05:53.512Z,43.11
2022-10-20T16:08:27.587Z,43.25
2022-10-20T16:11:00.379Z,43.71
2022-10-20T16:13:34.795Z,43.89
2022-10-20T16:16:08.314Z,43.79
2022-10-20T16:18:40.981Z,43.76
2022-10-20T16:21:13.631Z,44.03
2022-10-20T16:23:46.312Z,44.01
2022-10-20T16:26:21.559Z,44.43
2022-10-20T16:28:54.246Z,44.44
2022-10-20T16:31:27.215Z,44.69
2022-10-20T16:34:02.321Z,44.80
2022-10-20T16:36:35.695Z,44.66
2022-10-20T16:39:09.133Z,44.37
2022-10-20T16:41:42.065Z,44.42
2022-10-20T16:44:15.872Z,44.90
2022-10-20T16:46:48.830Z,45.21
2022-10-20T16:49:21.429Z,45.79
2022-10-20T16:51:54.414Z,45.84
2022-10-20T16:54:27.714Z,46.06
2022-10-20T16:57:00.627Z,46.14
2022-10-20T16:59:33.443Z,45.60
2022-10-20T17:02:06.207Z,46.32
2022-10-20T17:04:40.531Z,46.08
2022-10-20T17:07:13.738Z,45.90
2022-10-20T17:09:47.167Z,45.97
2022-10-20T17:12:19.947Z,46.47
2022-10-20T17:14:52.983Z,46.91
2022-10-20T17:17:26.061Z,46.44
2022-10-20T17:19:58.779Z,46.55
2022-10-20T17:22:31.044Z,46.63
2022-10-20T17:25:04.696Z,46.55
2022-10-20T17:27:37.773Z,47.21
2022-10-20T17:30:12.136Z,47.43
2022-10-20T17:32:44.807Z,47.47
2022-10-20T17:35:17.290Z,47.29
2022-10-20T17:37:50.152Z,47.07
2022-10-20T17:40:23.030Z,46.96
2022-10-20T17:42:55.759Z,47.08
2022-10-20T17:45:28.412Z,47.33
2022-10-20T17:48:01.383Z,47.31
2022-10-20T17:50:34.325Z,47.82
2022-10-20T17:53:07.463Z,47.86
2022-10-20T17:55:40.750Z,47.63
2022-10-20T17:58:13.907Z,47.85
2022-10-20T18:00:55.891Z,47.91
2022-10-20T18:03:31.988Z,48.15
2022-10-20T18:06:12.933Z,48.31
2022-10-20T18:08:47.887Z,48.56
2022-10-20T18:11:23.773Z,48.61
2022-10-20T18:14:01.023Z,48.64
2022-10-20T18:16:36.326Z,48.76
2022-10-20T18:19:15.964Z,48.91
2022-10-20T18:21:49.584Z,48.92
2022-10-20T18:24:22.628Z,48.84
2022-10-20T18:26:55.531Z,48.87
2022-10-20T18:29:32.807Z,48.98
2022-10-20T18:32:06.058Z,48.91
2022-10-20T18:34:39.374Z,48.83
2022-10-20T18:37:15.846Z,48.81
2022-10-20T18:39:49.073Z,49.00
2022-10-20T18:42:21.882Z,49.83
2022-10-20T18:44:54.834Z,50.93
2022-10-20T18:47:28.119Z,50.26
2022-10-20T18:50:01.194Z,50.77
2022-10-20T18:52:35.046Z,51.05
2022-10-20T18:55:09.125Z,51.40
2022-10-20T18:57:42.660Z,51.02
2022-10-20T19:00:16.399Z,50.95
2022-10-20T19:03:01.644Z,50.98
2022-10-20T19:05:39.977Z,51.23
2022-10-20T19:08:14.385Z,51.30
2022-10-20T19:10:51.591Z,51.49
2022-10-20T19:13:26.901Z,51.53
2022-10-20T19:16:02.197Z,51.62
2022-10-20T19:18:36.301Z,51.93
2022-10-20T19:21:10.603Z,51.95
2022-10-20T19:23:46.265Z,51.92
2022-10-20T19:26:22.757Z,51.96
2022-10-20T19:29:01.934Z,51.88
2022-10-20T19:31:39.307Z,51.84
2022-10-20T19:34:29.097Z,52.18
2022-10-20T19:37:03.130Z,52.17
2022-10-20T19:39:42.789Z,52.25
2022-10-20T19:42:15.965Z,52.37
2022-10-20T19:44:48.937Z,52.56
2022-10-20T19:47:22.290Z,52.49
2022-10-20T19:49:55.186Z,52.64
2022-10-20T19:52:28.198Z,52.81
2022-10-20T19:55:01.774Z,52.89
2022-10-20T19:57:34.893Z,52.87
2022-10-20T20:00:08.808Z,52.85
2022-10-20T20:02:41.320Z,53.28
2022-10-20T20:05:14.447Z,53.22
2022-10-20T20:07:47.961Z,53.41
2022-10-20T20:10:21.650Z,53.56
2022-10-20T20:12:55.146Z,53.46
2022-10-20T20:15:31.368Z,53.58
2022-10-20T20:18:06.160Z,53.55
2022-10-20T20:20:42.022Z,53.61
2022-10-20T20:23:34.699Z,53.86
2022-10-20T20:26:16.371Z,54.08
2022-10-20T20:28:50.222Z,54.06
2022-10-20T20:31:25.399Z,54.29
2022-10-20T20:33:59.478Z,54.38
2022-10-20T20:36:33.249Z,54.51
2022-10-20T20:39:08.611Z,54.73
2022-10-20T20:41:42.357Z,54.95
2022-10-20T20:44:15.983Z,55.36
2022-10-20T20:46:49.280Z,55.89
2022-10-20T20:49:22.669Z,55.14
2022-10-20T20:51:59.715Z,55.02
2022-10-20T20:54:33.620Z,54.93
2022-10-20T20:57:06.634Z,55.17
2022-10-20T20:59:44.290Z,54.82
2022-10-20T21:02:25.769Z,55.58
2022-10-20T21:04:59.584Z,55.21
2022-10-20T21:07:33.306Z,55.35
2022-10-20T21:10:06.478Z,55.39
2022-10-20T21:12:39.793Z,55.51
2022-10-20T21:15:13.767Z,55.41
2022-10-20T21:17:47.434Z,55.35
2022-10-20T21:20:24.489Z,55.41
2022-10-20T21:22:58.783Z,55.62
2022-10-20T21:25:31.616Z,55.86
2022-10-20T21:28:08.510Z,55.90
2022-10-20T21:30:43.148Z,55.95
2022-10-20T21:33:16.122Z,56.82
2022-10-20T21:35:52.778Z,56.80
2022-10-20T21:38:29.222Z,56.41
2022-10-20T21:41:06.318Z,56.34
2022-10-20T21:43:40.896Z,56.36
2022-10-20T21:46:32.901Z,56.74
2022-10-20T21:49:07.740Z,56.68
2022-10-20T21:51:46.045Z,56.53
2022-10-20T21:57:00.702Z,56.31
2022-10-20T21:59:35.224Z,56.21
2022-10-20T22:02:15.325Z,56.12
2022-10-20T22:04:47.761Z,56.18
2022-10-20T22:07:19.187Z,56.12
2022-10-20T22:09:53.167Z,56.48
2022-10-20T22:12:26.258Z,56.37
2022-10-20T22:14:59.802Z,56.67
2022-10-20T22:17:32.802Z,56.69
2022-10-20T22:20:05.275Z,56.60
2022-10-20T22:22:38.300Z,56.54
2022-10-20T22:25:11.787Z,56.61
2022-10-20T22:27:46.571Z,56.84
2022-10-20T22:30:19.650Z,56.93
2022-10-20T22:32:52.244Z,56.92
2022-10-20T22:35:25.216Z,57.14
2022-10-20T22:37:57.731Z,57.37
2022-10-20T22:40:30.405Z,57.36
2022-10-20T22:43:03.376Z,57.20
2022-10-20T22:45:36.506Z,57.39
2022-10-20T22:48:10.278Z,57.70
2022-10-20T22:50:43.732Z,57.78
2022-10-20T22:53:16.548Z,57.75
2022-10-20T22:55:50.144Z,57.76
2022-10-20T22:58:30.084Z,57.84
2022-10-20T23:01:07.129Z,57.62
2022-10-20T23:03:40.551Z,57.74
2022-10-20T23:06:16.609Z,57.76
2022-10-20T23:08:54.577Z,57.81
2022-10-20T23:11:27.228Z,57.84
2022-10-20T23:13:59.957Z,57.93
2022-10-20T23:16:32.417Z,57.94
2022-10-20T23:19:04.662Z,58.00
2022-10-20T23:21:37.506Z,58.04
2022-10-20T23:24:10.320Z,58.11
2022-10-20T23:26:43.102Z,58.24
2022-10-20T23:29:15.841Z,58.53
2022-10-20T23:31:48.422Z,58.35
2022-10-20T23:34:21.408Z,58.44
2022-10-20T23:36:54.219Z,57.99
2022-10-20T23:39:26.972Z,58.07
2022-10-20T23:42:04.824Z,58.44
2022-10-20T23:44:43.279Z,58.39
2022-10-20T23:47:16.108Z,58.64
2022-10-20T23:49:52.048Z,58.75
2022-10-20T23:52:24.977Z,58.53
2022-10-20T23:54:57.759Z,58.61
2022-10-20T23:57:30.832Z,58.71
